createdAt,value
2018-01-01T00:00:26.530Z,9.50
2018-01-01T00:02:54.869Z,9.50
2018-01-01T00:05:24.015Z,9.50
2018-01-01T00:07:52.319Z,9.50
2018-01-01T00:10:20.683Z,9.60
2018-01-01T00:12:48.996Z,9.70
2018-01-01T00:15:17.421Z,9.70
2018-01-01T00:17:45.719Z,9.70
2018-01-01T00:20:14.035Z,9.80
2018-01-01T00:22:42.402Z,9.80
2018-01-01T00:25:10.703Z,9.80
2018-01-01T00:27:39.796Z,9.70
2018-01-01T00:30:08.867Z,9.70
2018-01-01T00:32:37.987Z,9.70
2018-01-01T00:35:07.061Z,9.70
2018-01-01T00:37:35.389Z,9.60
2018-01-01T00:40:03.698Z,9.70
2018-01-01T00:42:32.015Z,9.70
2018-01-01T00:45:01.077Z,9.80
2018-01-01T00:47:29.411Z,9.80
2018-01-01T00:49:57.710Z,9.80
2018-01-01T00:52:26.030Z,9.80
2018-01-01T00:54:54.364Z,9.80
2018-01-01T00:57:22.677Z,9.80
2018-01-01T00:59:51.009Z,9.90
2018-01-01T01:02:19.310Z,9.80
2018-01-01T01:04:47.638Z,9.80
2018-01-01T01:07:15.944Z,9.80
2018-01-01T01:09:44.280Z,9.70
2018-01-01T01:12:12.583Z,9.70
2018-01-01T01:14:41.664Z,9.70
2018-01-01T01:17:09.968Z,9.60
2018-01-01T01:19:39.070Z,9.60
2018-01-01T01:22:07.355Z,9.60
2018-01-01T01:24:35.653Z,9.60
2018-01-01T01:27:03.962Z,9.60
2018-01-01T01:29:32.251Z,9.60
2018-01-01T01:32:00.584Z,9.60
2018-01-01T01:34:28.884Z,9.60
2018-01-01T01:36:57.213Z,9.60
2018-01-01T01:39:25.505Z,9.60
2018-01-01T01:41:53.844Z,9.50
2018-01-01T01:44:22.144Z,9.60
2018-01-01T01:46:51.246Z,9.50
2018-01-01T01:49:19.553Z,9.60
2018-01-01T01:51:47.873Z,9.60
2018-01-01T01:54:16.209Z,9.50
2018-01-01T01:56:44.532Z,9.50
2018-01-01T01:59:12.856Z,9.50
2018-01-01T02:01:41.144Z,9.50
2018-01-01T02:04:09.478Z,9.40
2018-01-01T02:06:38.543Z,9.40
2018-01-01T02:09:06.855Z,9.40
2018-01-01T02:11:35.184Z,9.40
2018-01-01T02:14:03.511Z,9.40
2018-01-01T02:16:32.572Z,9.30
2018-01-01T02:19:00.867Z,9.30
2018-01-01T02:21:29.209Z,9.40
2018-01-01T02:23:57.519Z,9.40
2018-01-01T02:26:25.849Z,9.30
2018-01-01T02:28:54.165Z,9.40
2018-01-01T02:31:22.483Z,9.30
2018-01-01T02:33:50.798Z,9.20
2018-01-01T02:36:19.122Z,9.20
2018-01-01T02:38:48.180Z,9.30
2018-01-01T02:41:16.495Z,9.20
2018-01-01T02:43:45.574Z,9.10
2018-01-01T02:46:13.892Z,9.20
2018-01-01T02:48:42.238Z,9.20
2018-01-01T02:51:11.326Z,9.20
2018-01-01T02:53:40.375Z,9.20
2018-01-01T02:56:08.677Z,9.20
2018-01-01T02:58:36.992Z,9.20
2018-01-01T03:01:05.286Z,9.20
2018-01-01T03:03:34.380Z,9.10
2018-01-01T03:06:04.324Z,9.00
2018-01-01T03:08:32.640Z,9.00
2018-01-01T03:11:00.933Z,9.00
2018-01-01T03:13:29.362Z,9.00
2018-01-01T03:15:57.657Z,9.00
2018-01-01T03:18:25.984Z,9.00
2018-01-01T03:20:54.301Z,9.00
2018-01-01T03:23:22.601Z,9.00
2018-01-01T03:25:50.940Z,9.00
2018-01-01T03:28:19.549Z,9.00
2018-01-01T03:30:47.883Z,8.90
2018-01-01T03:33:16.229Z,8.90
2018-01-01T03:35:44.560Z,8.90
2018-01-01T03:38:12.862Z,8.80
2018-01-01T03:40:41.193Z,8.80
2018-01-01T03:43:09.543Z,8.80
2018-01-01T03:45:37.912Z,8.80
2018-01-01T03:48:06.342Z,8.80
2018-01-01T03:50:35.477Z,8.70
2018-01-01T03:53:03.796Z,8.70
2018-01-01T03:55:32.111Z,8.80
2018-01-01T03:58:00.474Z,8.80
2018-01-01T04:00:29.544Z,8.70
2018-01-01T04:02:57.900Z,8.70
2018-01-01T04:05:26.216Z,8.80
2018-01-01T04:07:54.545Z,8.80
2018-01-01T04:10:22.857Z,8.80
2018-01-01T04:12:51.165Z,8.80
2018-01-01T04:15:20.281Z,8.80
2018-01-01T04:17:48.573Z,8.70
2018-01-01T04:20:16.909Z,8.80
2018-01-01T04:22:45.225Z,8.70
2018-01-01T04:25:13.565Z,8.70
2018-01-01T04:27:41.878Z,8.70
2018-01-01T04:30:10.204Z,8.70
2018-01-01T04:32:38.515Z,8.70
2018-01-01T04:35:07.610Z,8.70
2018-01-01T04:37:36.687Z,8.70
2018-01-01T04:40:04.997Z,8.60
2018-01-01T04:42:33.315Z,8.60
2018-01-01T04:45:01.621Z,8.60
2018-01-01T04:47:29.950Z,8.60
2018-01-01T04:49:58.245Z,8.60
2018-01-01T04:52:26.574Z,8.70
2018-01-01T04:54:55.645Z,8.60
2018-01-01T04:57:24.766Z,8.70
2018-01-01T04:59:53.837Z,8.60
2018-01-01T05:02:22.164Z,8.60
2018-01-01T05:04:50.468Z,8.60
2018-01-01T05:07:18.823Z,8.60
2018-01-01T05:09:47.140Z,8.60
2018-01-01T05:12:15.485Z,8.70
2018-01-01T05:14:43.797Z,8.60
2018-01-01T05:17:12.126Z,8.60
2018-01-01T05:19:40.874Z,8.60
2018-01-01T05:22:09.181Z,8.50
2018-01-01T05:24:38.287Z,8.50
2018-01-01T05:27:07.370Z,8.60
2018-01-01T05:29:36.467Z,8.50
2018-01-01T05:32:05.538Z,8.40
2018-01-01T05:34:33.861Z,8.40
2018-01-01T05:37:02.172Z,8.30
2018-01-01T05:39:30.518Z,8.30
2018-01-01T05:41:58.832Z,8.30
2018-01-01T05:44:27.136Z,8.20
2018-01-01T05:46:55.462Z,8.20
2018-01-01T05:49:23.760Z,8.10
2018-01-01T05:51:52.086Z,8.10
2018-01-01T05:54:21.146Z,8.00
2018-01-01T05:56:49.467Z,8.00
2018-01-01T05:59:18.535Z,8.00
2018-01-01T06:01:46.859Z,8.00
2018-01-01T06:04:15.172Z,8.00
2018-01-01T06:06:43.503Z,8.00
2018-01-01T06:09:11.816Z,7.90
2018-01-01T06:11:40.130Z,7.90
2018-01-01T06:14:08.438Z,7.80
2018-01-01T06:16:36.746Z,7.80
2018-01-01T06:19:05.073Z,7.70
2018-01-01T06:21:33.368Z,7.70
2018-01-01T06:24:02.460Z,7.60
2018-01-01T06:26:31.542Z,7.50
2018-01-01T06:28:59.882Z,7.50
2018-01-01T06:31:28.200Z,7.50
2018-01-01T06:33:56.529Z,7.40
2018-01-01T06:36:24.833Z,7.40
2018-01-01T06:38:53.177Z,7.40
2018-01-01T06:41:21.468Z,7.40
2018-01-01T06:43:49.780Z,7.40
2018-01-01T06:46:18.109Z,7.40
2018-01-01T06:48:46.422Z,7.40
2018-01-01T06:51:14.758Z,7.30
2018-01-01T06:53:43.061Z,7.40
2018-01-01T06:56:11.397Z,7.40
2018-01-01T06:58:40.470Z,7.40
2018-01-01T07:01:08.797Z,7.40
2018-01-01T07:03:37.110Z,7.40
2018-01-01T07:06:05.432Z,7.40
2018-01-01T07:08:34.505Z,7.40
2018-01-01T07:11:02.828Z,7.40
2018-01-01T07:13:31.140Z,7.40
2018-01-01T07:15:59.447Z,7.40
2018-01-01T07:18:27.764Z,7.30
2018-01-01T07:20:56.090Z,7.30
2018-01-01T07:23:24.425Z,7.30
2018-01-01T07:25:52.753Z,7.30
2018-01-01T07:28:21.090Z,7.20
2018-01-01T07:30:49.423Z,7.10
2018-01-01T07:33:18.522Z,7.10
2018-01-01T07:35:47.591Z,7.10
2018-01-01T07:38:15.918Z,7.10
2018-01-01T07:40:44.230Z,7.20
2018-01-01T07:43:12.563Z,7.20
2018-01-01T07:45:40.900Z,7.20
2018-01-01T07:48:10.003Z,7.30
2018-01-01T07:50:38.312Z,7.20
2018-01-01T07:53:07.377Z,7.20
2018-01-01T07:55:35.711Z,7.20
2018-01-01T07:58:04.017Z,7.20
2018-01-01T08:00:32.349Z,7.30
2018-01-01T08:03:00.668Z,7.20
2018-01-01T08:05:28.998Z,7.30
2018-01-01T08:07:58.075Z,7.30
2018-01-01T08:10:26.405Z,7.30
2018-01-01T08:12:54.717Z,7.30
2018-01-01T08:15:23.054Z,7.30
2018-01-01T08:17:51.360Z,7.30
2018-01-01T08:20:19.657Z,7.30
2018-01-01T08:22:48.004Z,7.30
2018-01-01T08:25:16.322Z,7.30
2018-01-01T08:27:44.655Z,7.30
2018-01-01T08:30:12.969Z,7.30
2018-01-01T08:32:41.293Z,7.30
2018-01-01T08:35:09.607Z,7.40
2018-01-01T08:37:37.944Z,7.40
2018-01-01T08:40:06.314Z,7.40
2018-01-01T08:42:35.411Z,7.50
2018-01-01T08:45:04.501Z,7.70
2018-01-01T08:47:33.582Z,7.90
2018-01-01T08:50:01.907Z,7.90
2018-01-01T08:52:30.211Z,8.10
2018-01-01T08:54:58.533Z,8.10
2018-01-01T08:57:27.603Z,8.10
2018-01-01T08:59:55.930Z,8.10
2018-01-01T09:02:24.244Z,8.30
2018-01-01T09:04:52.613Z,8.30
2018-01-01T09:07:20.911Z,8.50
2018-01-01T09:09:49.248Z,8.60
2018-01-01T09:12:17.547Z,8.70
2018-01-01T09:14:45.889Z,8.70
2018-01-01T09:17:14.988Z,8.90
2018-01-01T09:19:44.057Z,8.80
2018-01-01T09:22:12.384Z,8.80
2018-01-01T09:24:40.695Z,8.90
2018-01-01T09:27:09.030Z,8.80
2018-01-01T09:29:37.345Z,8.80
2018-01-01T09:32:05.669Z,8.90
2018-01-01T09:34:34.009Z,9.00
2018-01-01T09:37:02.343Z,9.10
2018-01-01T09:39:30.662Z,9.00
2018-01-01T09:41:58.969Z,9.00
2018-01-01T09:44:27.299Z,9.20
2018-01-01T09:46:55.598Z,9.20
2018-01-01T09:49:23.943Z,9.20
2018-01-01T09:51:52.254Z,9.10
2018-01-01T09:54:20.587Z,9.30
2018-01-01T09:56:49.655Z,9.30
2018-01-01T09:59:17.988Z,9.20
2018-01-01T10:01:46.294Z,8.90
2018-01-01T10:04:14.625Z,8.90
2018-01-01T10:06:42.960Z,8.90
2018-01-01T10:09:11.283Z,8.90
2018-01-01T10:11:40.475Z,8.80
2018-01-01T10:14:08.782Z,9.00
2018-01-01T10:16:37.114Z,8.90
2018-01-01T10:19:06.178Z,9.00
2018-01-01T10:21:34.484Z,8.90
2018-01-01T10:24:03.580Z,8.80
2018-01-01T10:26:32.665Z,8.70
2018-01-01T10:29:00.980Z,8.60
2018-01-01T10:31:29.310Z,8.60
2018-01-01T10:33:57.665Z,8.70
2018-01-01T10:36:25.969Z,8.60
2018-01-01T10:38:54.281Z,8.70
2018-01-01T10:41:23.379Z,9.20
2018-01-01T10:43:52.440Z,8.90
2018-01-01T10:46:20.763Z,8.90
2018-01-01T10:48:49.076Z,8.70
2018-01-01T10:51:17.405Z,9.00
2018-01-01T10:53:46.478Z,9.10
2018-01-01T10:56:14.819Z,9.10
2018-01-01T10:58:43.127Z,9.00
2018-01-01T11:01:11.458Z,9.20
2018-01-01T11:03:39.757Z,9.00
2018-01-01T11:06:08.053Z,8.80
2018-01-01T11:08:36.378Z,8.70
2018-01-01T11:11:05.832Z,8.80
2018-01-01T11:13:34.170Z,8.80
2018-01-01T11:16:02.472Z,8.80
2018-01-01T11:18:30.806Z,9.00
2018-01-01T11:20:59.878Z,9.10
2018-01-01T11:23:28.201Z,9.10
2018-01-01T11:25:56.515Z,8.90
2018-01-01T11:28:24.849Z,8.90
2018-01-01T11:30:53.912Z,8.80
2018-01-01T11:33:22.209Z,8.80
2018-01-01T11:35:51.326Z,8.50
2018-01-01T11:38:20.328Z,8.50
2018-01-01T11:40:48.657Z,8.40
2018-01-01T11:43:17.758Z,8.50
2018-01-01T11:45:46.078Z,8.50
2018-01-01T11:48:14.394Z,8.40
2018-01-01T11:50:42.748Z,8.40
2018-01-01T11:53:11.054Z,8.30
2018-01-01T11:55:39.430Z,8.40
2018-01-01T11:58:07.744Z,8.30
2018-01-01T12:00:36.087Z,8.40
2018-01-01T12:03:04.467Z,8.40
2018-01-01T12:05:32.812Z,8.50
2018-01-01T12:08:01.175Z,8.60
2018-01-01T12:10:30.245Z,8.60
2018-01-01T12:12:58.575Z,8.60
2018-01-01T12:15:26.924Z,8.70
2018-01-01T12:17:56.017Z,8.70
2018-01-01T12:20:25.085Z,8.50
2018-01-01T12:22:53.414Z,8.50
2018-01-01T12:25:21.712Z,8.60
2018-01-01T12:27:50.060Z,8.50
2018-01-01T12:30:18.403Z,8.60
2018-01-01T12:32:46.713Z,8.60
2018-01-01T12:35:15.847Z,8.60
2018-01-01T12:37:44.961Z,8.50
2018-01-01T12:40:13.290Z,8.50
2018-01-01T12:42:42.362Z,8.40
2018-01-01T12:45:10.729Z,8.40
2018-01-01T12:47:39.070Z,8.50
2018-01-01T12:50:07.439Z,8.50
2018-01-01T12:52:35.783Z,8.60
2018-01-01T12:55:04.159Z,8.60
2018-01-01T12:57:32.510Z,8.70
2018-01-01T13:00:00.837Z,8.80
2018-01-01T13:02:29.928Z,9.00
2018-01-01T13:04:59.051Z,9.00
2018-01-01T13:07:28.110Z,9.00
2018-01-01T13:09:56.461Z,9.00
2018-01-01T13:12:24.780Z,8.90
2018-01-01T13:14:53.850Z,9.10
2018-01-01T13:17:22.195Z,9.10
2018-01-01T13:19:50.506Z,9.10
2018-01-01T13:22:18.868Z,8.90
2018-01-01T13:24:47.208Z,8.90
2018-01-01T13:27:15.554Z,9.00
2018-01-01T13:29:43.898Z,8.90
2018-01-01T13:32:12.253Z,8.80
2018-01-01T13:34:40.638Z,8.80
2018-01-01T13:37:08.999Z,8.80
2018-01-01T13:39:38.128Z,8.60
2018-01-01T13:42:06.472Z,8.60
2018-01-01T13:44:35.576Z,8.60
2018-01-01T13:47:03.879Z,8.60
2018-01-01T13:49:32.244Z,8.50
2018-01-01T13:52:00.552Z,8.40
2018-01-01T13:54:28.932Z,8.30
2018-01-01T13:56:57.236Z,8.30
2018-01-01T13:59:25.621Z,8.20
2018-01-01T14:01:54.756Z,8.10
2018-01-01T14:04:23.116Z,8.10
2018-01-01T14:06:51.501Z,8.10
2018-01-01T14:09:19.845Z,8.10
2018-01-01T14:11:48.215Z,8.00
2018-01-01T14:14:16.568Z,8.00
2018-01-01T14:16:44.960Z,8.00
2018-01-01T14:19:13.329Z,8.00
2018-01-01T14:21:41.669Z,8.00
2018-01-01T14:24:10.741Z,8.00
2018-01-01T14:26:39.125Z,8.00
2018-01-01T14:29:07.435Z,7.90
2018-01-01T14:31:35.780Z,7.90
2018-01-01T14:34:04.134Z,7.90
2018-01-01T14:36:32.495Z,7.90
2018-01-01T14:39:00.832Z,7.80
2018-01-01T14:41:29.899Z,7.90
2018-01-01T14:43:58.271Z,7.80
2018-01-01T14:46:26.619Z,7.90
2018-01-01T14:48:54.996Z,7.90
2018-01-01T14:51:23.356Z,7.80
2018-01-01T14:53:52.490Z,7.80
2018-01-01T14:56:20.843Z,7.80
2018-01-01T14:58:49.205Z,7.80
2018-01-01T15:01:18.311Z,7.60
2018-01-01T15:03:47.458Z,7.50
2018-01-01T15:06:15.813Z,7.50
2018-01-01T15:08:44.135Z,7.50
2018-01-01T15:11:12.477Z,7.50
2018-01-01T15:13:40.821Z,7.60
2018-01-01T15:16:09.914Z,7.60
2018-01-01T15:18:38.978Z,7.60
2018-01-01T15:21:07.353Z,7.60
2018-01-01T15:23:35.699Z,7.60
2018-01-01T15:26:04.077Z,7.50
2018-01-01T15:28:32.420Z,7.50
2018-01-01T15:31:01.567Z,7.50
2018-01-01T15:33:29.929Z,7.50
2018-01-01T15:35:58.290Z,7.40
2018-01-01T15:38:27.415Z,7.30
2018-01-01T15:40:55.774Z,7.30
2018-01-01T15:43:24.150Z,7.30
2018-01-01T15:45:55.610Z,7.30
2018-01-01T15:48:23.997Z,7.30
2018-01-01T15:50:52.367Z,7.30
2018-01-01T15:53:20.742Z,7.40
2018-01-01T15:55:49.102Z,7.40
2018-01-01T15:58:18.197Z,7.20
2018-01-01T16:00:47.324Z,7.20
2018-01-01T16:03:15.720Z,7.20
2018-01-01T16:05:44.065Z,7.20
2018-01-01T16:08:13.161Z,7.00
2018-01-01T16:10:41.536Z,7.00
2018-01-01T16:13:10.665Z,7.00
2018-01-01T16:15:39.062Z,7.00
2018-01-01T16:18:07.438Z,7.00
2018-01-01T16:20:35.813Z,7.00
2018-01-01T16:23:04.157Z,7.00
2018-01-01T16:25:33.302Z,7.00
2018-01-01T16:28:01.660Z,7.00
2018-01-01T16:30:29.996Z,7.00
2018-01-01T16:32:58.363Z,7.00
2018-01-01T16:35:26.744Z,7.00
2018-01-01T16:37:55.091Z,7.00
2018-01-01T16:40:23.448Z,7.00
2018-01-01T16:42:51.832Z,7.00
2018-01-01T16:45:20.225Z,6.90
2018-01-01T16:47:48.597Z,6.90
2018-01-01T16:50:16.973Z,7.00
2018-01-01T16:52:45.339Z,7.00
2018-01-01T16:55:13.649Z,7.00
2018-01-01T16:57:42.033Z,7.00
2018-01-01T17:00:10.389Z,6.90
2018-01-01T17:02:38.784Z,7.00
2018-01-01T17:05:07.136Z,7.00
2018-01-01T17:07:35.526Z,7.00
2018-01-01T17:10:03.878Z,7.10
2018-01-01T17:12:32.995Z,7.10
2018-01-01T17:15:01.322Z,7.10
2018-01-01T17:17:29.667Z,7.10
2018-01-01T17:19:58.041Z,7.10
2018-01-01T17:22:26.392Z,7.00
2018-01-01T17:24:55.552Z,6.80
2018-01-01T17:27:23.905Z,6.80
2018-01-01T17:29:52.314Z,6.80
2018-01-01T17:32:20.665Z,6.80
2018-01-01T17:34:49.046Z,6.80
2018-01-01T17:37:17.435Z,6.80
2018-01-01T17:39:45.781Z,6.80
2018-01-01T17:42:14.152Z,6.80
2018-01-01T17:44:43.274Z,6.70
2018-01-01T17:47:11.648Z,6.70
2018-01-01T17:49:40.021Z,6.70
2018-01-01T17:52:08.403Z,6.70
2018-01-01T17:54:36.760Z,6.70
2018-01-01T17:57:05.907Z,6.70
2018-01-01T17:59:34.261Z,6.70
2018-01-01T18:02:02.624Z,6.60
2018-01-01T18:04:31.774Z,6.70
2018-01-01T18:07:00.158Z,6.70
2018-01-01T18:09:28.528Z,6.80
2018-01-01T18:11:56.890Z,6.80
2018-01-01T18:14:25.267Z,6.80
2018-01-01T18:16:53.630Z,6.80
2018-01-01T18:19:22.025Z,6.80
2018-01-01T18:21:50.398Z,6.80
2018-01-01T18:24:18.785Z,6.70
2018-01-01T18:26:47.141Z,6.70
2018-01-01T18:29:16.273Z,6.70
2018-01-01T18:31:44.621Z,6.70
2018-01-01T18:34:12.970Z,6.80
2018-01-01T18:36:42.862Z,6.90
2018-01-01T18:39:11.220Z,6.90
2018-01-01T18:41:39.579Z,6.90
2018-01-01T18:44:07.940Z,6.80
2018-01-01T18:46:36.330Z,6.80
2018-01-01T18:49:05.461Z,6.80
2018-01-01T18:51:33.837Z,6.80
2018-01-01T18:54:02.190Z,6.90
2018-01-01T18:56:30.556Z,6.90
2018-01-01T18:58:59.699Z,6.90
2018-01-01T19:01:28.825Z,6.90
2018-01-01T19:03:57.213Z,6.90
2018-01-01T19:06:25.579Z,7.00
2018-01-01T19:08:53.957Z,7.00
2018-01-01T19:11:22.326Z,7.00
2018-01-01T19:13:50.725Z,7.00
2018-01-01T19:16:19.098Z,7.00
2018-01-01T19:18:47.459Z,7.00
2018-01-01T19:21:15.849Z,7.00
2018-01-01T19:23:44.215Z,7.00
2018-01-01T19:26:12.592Z,7.00
2018-01-01T19:28:40.946Z,6.90
2018-01-01T19:31:09.330Z,6.90
2018-01-01T19:33:37.692Z,7.00
2018-01-01T19:36:06.830Z,6.90
2018-01-01T19:38:35.187Z,6.90
2018-01-01T19:41:03.559Z,6.90
2018-01-01T19:43:31.917Z,6.90
2018-01-01T19:46:01.061Z,7.00
2018-01-01T19:48:29.429Z,7.00
2018-01-01T19:50:57.819Z,7.00
2018-01-01T19:53:26.173Z,6.90
2018-01-01T19:55:54.524Z,6.90
2018-01-01T19:58:22.902Z,6.90
2018-01-01T20:00:51.251Z,6.90
2018-01-01T20:03:19.619Z,6.90
2018-01-01T20:05:47.988Z,6.90
2018-01-01T20:08:16.376Z,6.90
2018-01-01T20:10:44.730Z,6.80
2018-01-01T20:13:13.119Z,6.80
2018-01-01T20:15:41.472Z,6.80
2018-01-01T20:18:10.620Z,6.70
2018-01-01T20:20:38.983Z,6.70
2018-01-01T20:23:07.346Z,6.80
2018-01-01T20:25:35.734Z,6.70
2018-01-01T20:28:04.083Z,6.70
2018-01-01T20:30:33.236Z,6.80
2018-01-01T20:33:01.582Z,6.70
2018-01-01T20:35:29.959Z,6.80
2018-01-01T20:37:58.296Z,6.80
2018-01-01T20:40:26.669Z,6.80
2018-01-01T20:42:55.029Z,6.80
2018-01-01T20:45:23.419Z,6.80
2018-01-01T20:47:51.775Z,6.80
2018-01-01T20:50:20.160Z,6.80
2018-01-01T20:52:48.537Z,6.80
2018-01-01T20:55:16.904Z,6.80
2018-01-01T20:57:45.281Z,6.80
2018-01-01T21:00:13.660Z,6.80
2018-01-01T21:02:42.033Z,6.80
2018-01-01T21:05:10.396Z,6.80
2018-01-01T21:07:39.541Z,6.70
2018-01-01T21:10:07.889Z,6.70
2018-01-01T21:12:36.274Z,6.70
2018-01-01T21:15:04.643Z,6.70
2018-01-01T21:17:33.786Z,6.60
2018-01-01T21:20:02.148Z,6.60
2018-01-01T21:22:30.524Z,6.40
2018-01-01T21:24:58.880Z,6.40
2018-01-01T21:27:27.263Z,6.40
2018-01-01T21:29:55.613Z,6.40
2018-01-01T21:32:23.964Z,6.40
2018-01-01T21:34:52.350Z,6.30
2018-01-01T21:37:20.709Z,6.30
2018-01-01T21:39:49.094Z,6.30
2018-01-01T21:42:17.449Z,6.30
2018-01-01T21:44:45.859Z,6.30
2018-01-01T21:47:14.213Z,6.40
2018-01-01T21:49:42.585Z,6.30
2018-01-01T21:52:10.942Z,6.30
2018-01-01T21:54:40.092Z,6.30
2018-01-01T21:57:08.449Z,6.20
2018-01-01T21:59:36.824Z,6.20
2018-01-01T22:02:05.184Z,6.20
2018-01-01T22:04:34.304Z,6.20
2018-01-01T22:07:02.701Z,6.20
2018-01-01T22:09:31.084Z,6.20
2018-01-01T22:11:59.467Z,6.20
2018-01-01T22:14:27.839Z,6.20
2018-01-01T22:16:56.249Z,6.10
2018-01-01T22:19:24.621Z,6.10
2018-01-01T22:21:53.017Z,6.10
2018-01-01T22:24:21.419Z,6.10
2018-01-01T22:26:50.572Z,6.20
2018-01-01T22:29:18.946Z,6.20
2018-01-01T22:31:47.355Z,6.20
2018-01-01T22:34:15.730Z,6.10
2018-01-01T22:36:44.096Z,6.20
2018-01-01T22:39:12.499Z,6.20
2018-01-01T22:41:40.883Z,6.20
2018-01-01T22:44:09.298Z,6.20
2018-01-01T22:46:37.680Z,6.20
2018-01-01T22:49:06.066Z,6.20
2018-01-01T22:51:34.444Z,6.30
2018-01-01T22:54:03.609Z,6.20
2018-01-01T22:56:32.784Z,6.20
2018-01-01T22:59:01.222Z,6.20
2018-01-01T23:01:29.680Z,6.20
2018-01-01T23:04:00.129Z,6.20
2018-01-01T23:06:30.649Z,6.20
2018-01-01T23:09:03.805Z,6.20
2018-01-01T23:11:34.666Z,6.20
2018-01-01T23:14:03.488Z,6.20
2018-01-01T23:16:32.847Z,6.10
2018-01-01T23:19:01.331Z,6.10
2018-01-01T23:21:30.512Z,6.00
2018-01-01T23:23:59.767Z,6.00
2018-01-01T23:26:28.195Z,6.00
2018-01-01T23:28:57.448Z,6.00
2018-01-01T23:31:25.874Z,6.00
2018-01-01T23:33:54.272Z,6.00
2018-01-01T23:36:22.720Z,5.90
2018-01-01T23:38:51.148Z,5.90
2018-01-01T23:41:19.550Z,5.90
2018-01-01T23:43:47.968Z,5.90
2018-01-01T23:46:16.352Z,5.90
2018-01-01T23:48:44.740Z,5.90
2018-01-01T23:51:13.911Z,6.00
2018-01-01T23:53:42.419Z,6.00
2018-01-01T23:56:11.597Z,6.00
2018-01-01T23:58:39.991Z,5.90
